createdAt,value
2019-03-15T00:00:20.088Z,98346.91
2019-03-15T00:02:46.764Z,98346.95
2019-03-15T00:05:13.593Z,98354.88
2019-03-15T00:07:41.274Z,98351.58
2019-03-15T00:10:29.444Z,98348.18
2019-03-15T00:12:56.137Z,98344.64
2019-03-15T00:15:22.826Z,98359.16
2019-03-15T00:17:49.590Z,98350.89
2019-03-15T00:20:16.270Z,98351.83
2019-03-15T00:22:43.069Z,98357.99
2019-03-15T00:25:09.741Z,98348.66
2019-03-15T00:27:36.327Z,98370.59
2019-03-15T00:30:04.602Z,98370.59
2019-03-15T00:32:31.292Z,98352.28
2019-03-15T00:34:57.870Z,98386.83
2019-03-15T00:37:24.567Z,98395.19
2019-03-15T00:39:51.264Z,98394.97
2019-03-15T00:42:17.962Z,98381.95
2019-03-15T00:44:44.570Z,98396.33
2019-03-15T00:47:11.180Z,98387.38
2019-03-15T00:49:37.764Z,98396.75
2019-03-15T00:52:04.575Z,98379.05
2019-03-15T00:54:31.167Z,98379.05
2019-03-15T00:56:58.105Z,98390.12
2019-03-15T00:59:24.656Z,98390.12
2019-03-15T01:01:51.362Z,98402.22
2019-03-15T01:04:18.145Z,98401.37
2019-03-15T01:06:44.859Z,98396.69
2019-03-15T01:09:11.551Z,98404.00
2019-03-15T01:11:38.246Z,98392.14
2019-03-15T01:14:05.029Z,98399.84
2019-03-15T01:16:31.739Z,98418.13
2019-03-15T01:18:58.546Z,98409.39
2019-03-15T01:21:25.266Z,98401.53
2019-03-15T01:23:51.835Z,98402.36
2019-03-15T01:26:18.679Z,98400.71
2019-03-15T01:28:45.317Z,98415.73
2019-03-15T01:31:11.933Z,98414.67
2019-03-15T01:33:38.646Z,98408.16
2019-03-15T01:36:05.331Z,98415.33
2019-03-15T01:38:32.023Z,98430.48
2019-03-15T01:40:58.601Z,98364.65
2019-03-15T01:43:26.432Z,98419.17
2019-03-15T01:45:53.020Z,98420.06
2019-03-15T01:48:19.728Z,98420.06
2019-03-15T01:50:46.504Z,98428.42
2019-03-15T01:53:13.123Z,98408.80
2019-03-15T01:55:40.302Z,98413.45
2019-03-15T01:58:07.082Z,98413.45
2019-03-15T02:00:33.866Z,98422.87
2019-03-15T02:03:02.314Z,98408.93
2019-03-15T02:05:29.287Z,98408.93
2019-03-15T02:07:56.104Z,98414.13
2019-03-15T02:10:22.903Z,98412.66
2019-03-15T02:12:49.484Z,98437.52
2019-03-15T02:15:16.174Z,98432.06
2019-03-15T02:17:42.866Z,98428.70
2019-03-15T02:20:09.562Z,98426.53
2019-03-15T02:22:36.329Z,98432.38
2019-03-15T02:25:03.827Z,98432.38
2019-03-15T02:27:30.645Z,98426.13
2019-03-15T02:29:57.345Z,98429.39
2019-03-15T02:32:24.058Z,98429.39
2019-03-15T02:34:50.626Z,98420.27
2019-03-15T02:37:17.323Z,98431.22
2019-03-15T02:39:43.905Z,98416.73
2019-03-15T02:42:10.518Z,98429.25
2019-03-15T02:44:37.313Z,98400.33
2019-03-15T02:47:04.133Z,98419.72
2019-03-15T02:49:31.113Z,98409.50
2019-03-15T02:51:57.700Z,98409.94
2019-03-15T02:54:24.396Z,98425.20
2019-03-15T02:56:51.078Z,98433.42
2019-03-15T02:59:17.775Z,98424.19
2019-03-15T03:01:44.366Z,98418.77
2019-03-15T03:04:11.175Z,98436.73
2019-03-15T03:06:37.950Z,98434.16
2019-03-15T03:09:05.372Z,98438.02
2019-03-15T03:11:32.070Z,98428.81
2019-03-15T03:13:58.855Z,98433.20
2019-03-15T03:16:25.641Z,98435.66
2019-03-15T03:18:52.345Z,98440.13
2019-03-15T03:21:19.052Z,98432.92
2019-03-15T03:23:46.183Z,98430.63
2019-03-15T03:26:13.548Z,98449.05
2019-03-15T03:28:40.567Z,98428.68
2019-03-15T03:31:07.338Z,98437.50
2019-03-15T03:33:34.053Z,98450.70
2019-03-15T03:36:01.044Z,98457.33
2019-03-15T03:38:27.848Z,98437.00
2019-03-15T03:40:56.275Z,98456.92
2019-03-15T03:43:23.821Z,98462.66
2019-03-15T03:45:50.593Z,98461.05
2019-03-15T03:48:17.691Z,98463.16
2019-03-15T03:50:44.470Z,98453.19
2019-03-15T03:53:11.263Z,98453.80
2019-03-15T03:55:37.939Z,98453.80
2019-03-15T03:58:04.843Z,98455.58
2019-03-15T04:00:31.535Z,98450.20
2019-03-15T04:02:58.338Z,98451.63
2019-03-15T04:05:25.432Z,98451.63
2019-03-15T04:07:52.211Z,98462.89
2019-03-15T04:10:19.011Z,98453.47
2019-03-15T04:12:46.050Z,98448.41
2019-03-15T04:15:12.871Z,98454.26
2019-03-15T04:17:39.655Z,98454.98
2019-03-15T04:20:06.944Z,98448.87
2019-03-15T04:22:33.617Z,98446.42
2019-03-15T04:25:00.423Z,98445.69
2019-03-15T04:27:27.105Z,98456.54
2019-03-15T04:29:53.995Z,98448.67
2019-03-15T04:32:21.040Z,98448.67
2019-03-15T04:34:47.650Z,98445.61
2019-03-15T04:37:14.331Z,98427.31
2019-03-15T04:39:41.136Z,98439.44
2019-03-15T04:42:08.003Z,98449.36
2019-03-15T04:44:34.732Z,98426.66
2019-03-15T04:47:01.447Z,98438.16
2019-03-15T04:49:28.015Z,98447.44
2019-03-15T04:51:54.608Z,98454.20
2019-03-15T04:54:21.315Z,98454.20
2019-03-15T04:56:48.004Z,98444.59
2019-03-15T04:59:14.605Z,98458.94
2019-03-15T05:01:41.394Z,98457.05
2019-03-15T05:04:08.467Z,98464.91
2019-03-15T05:06:35.147Z,98464.91
2019-03-15T05:09:02.000Z,98467.16
2019-03-15T05:11:28.808Z,98473.38
2019-03-15T05:13:58.699Z,98469.41
2019-03-15T05:16:24.205Z,98481.09
2019-03-15T05:18:50.893Z,98476.83
2019-03-15T05:21:37.518Z,98467.81
2019-03-15T05:24:04.302Z,98467.81
2019-03-15T05:26:31.103Z,98460.50
2019-03-15T05:28:57.788Z,98463.91
2019-03-15T05:31:24.412Z,98457.92
2019-03-15T05:33:50.986Z,98466.34
2019-03-15T05:36:17.707Z,98459.63
2019-03-15T05:38:44.519Z,98453.66
2019-03-15T05:41:11.217Z,98439.72
2019-03-15T05:43:37.815Z,98447.36
2019-03-15T05:46:04.517Z,98455.13
2019-03-15T05:48:31.300Z,98460.91
2019-03-15T05:50:58.314Z,98443.16
2019-03-15T05:53:24.925Z,98447.27
2019-03-15T05:55:51.529Z,98445.61
2019-03-15T05:58:21.673Z,98438.86
2019-03-15T06:00:46.857Z,98438.86
2019-03-15T06:03:15.158Z,98441.33
2019-03-15T06:05:41.968Z,98435.94
2019-03-15T06:08:09.358Z,98436.32
2019-03-15T06:10:36.071Z,98429.50
2019-03-15T06:13:02.856Z,98435.58
2019-03-15T06:15:29.569Z,98427.53
2019-03-15T06:17:56.227Z,98427.34
2019-03-15T06:20:23.014Z,98407.78
2019-03-15T06:22:49.722Z,98402.80
2019-03-15T06:25:16.396Z,98415.75
2019-03-15T06:27:43.091Z,98414.38
2019-03-15T06:30:09.874Z,98425.03
2019-03-15T06:32:36.555Z,98423.69
2019-03-15T06:35:04.271Z,98416.50
2019-03-15T06:37:30.934Z,98396.98
2019-03-15T06:39:57.539Z,98401.53
2019-03-15T06:42:24.232Z,98391.01
2019-03-15T06:44:57.953Z,98398.05
2019-03-15T06:47:19.451Z,98400.84
2019-03-15T06:49:46.140Z,98415.63
2019-03-15T06:52:14.003Z,98418.80
2019-03-15T06:54:40.729Z,98410.75
2019-03-15T06:57:07.457Z,98403.89
2019-03-15T06:59:34.058Z,98405.47
2019-03-15T07:02:00.812Z,98401.94
2019-03-15T07:04:27.527Z,98389.48
2019-03-15T07:06:54.318Z,98395.95
2019-03-15T07:09:21.112Z,98382.82
2019-03-15T07:11:47.779Z,98390.59
2019-03-15T07:14:14.587Z,98383.97
2019-03-15T07:16:41.167Z,98387.42
2019-03-15T07:19:07.953Z,98375.08
2019-03-15T07:21:36.809Z,98375.98
2019-03-15T07:24:03.325Z,98367.35
2019-03-15T07:26:30.113Z,98378.54
2019-03-15T07:28:56.812Z,98378.48
2019-03-15T07:31:23.582Z,98365.66
2019-03-15T07:33:50.184Z,98376.31
2019-03-15T07:36:16.983Z,98363.08
2019-03-15T07:38:43.818Z,98370.31
2019-03-15T07:41:10.655Z,98358.86
2019-03-15T07:43:37.231Z,98351.95
2019-03-15T07:46:04.025Z,98356.28
2019-03-15T07:48:30.733Z,98365.73
2019-03-15T07:50:57.566Z,98361.33
2019-03-15T07:53:24.382Z,98360.44
2019-03-15T07:55:51.071Z,98362.59
2019-03-15T07:58:17.905Z,98357.17
2019-03-15T08:00:44.613Z,98350.20
2019-03-15T08:03:11.389Z,98342.61
2019-03-15T08:05:38.295Z,98349.27
2019-03-15T08:08:05.145Z,98348.02
2019-03-15T08:10:31.850Z,98340.22
2019-03-15T08:12:58.527Z,98339.28
2019-03-15T08:15:25.237Z,98341.39
2019-03-15T08:17:52.011Z,98335.49
2019-03-15T08:20:18.719Z,98348.09
2019-03-15T08:22:45.531Z,98339.61
2019-03-15T08:25:12.539Z,98340.14
2019-03-15T08:27:39.299Z,98327.61
2019-03-15T08:30:08.222Z,98341.72
2019-03-15T08:32:34.922Z,98341.93
2019-03-15T08:35:03.907Z,98333.20
2019-03-15T08:37:30.143Z,98317.74
2019-03-15T08:39:56.783Z,98341.25
2019-03-15T08:42:23.453Z,98326.08
2019-03-15T08:44:50.328Z,98332.09
2019-03-15T08:47:17.030Z,98341.33
2019-03-15T08:49:43.763Z,98340.68
2019-03-15T08:52:10.466Z,98340.50
2019-03-15T08:54:37.171Z,98336.03
2019-03-15T08:57:03.970Z,98338.14
2019-03-15T08:59:30.673Z,98314.81
2019-03-15T09:01:57.308Z,98329.62
2019-03-15T09:04:23.913Z,98326.12
2019-03-15T09:06:50.706Z,98330.80
2019-03-15T09:09:17.488Z,98329.45
2019-03-15T09:11:44.288Z,98327.16
2019-03-15T09:14:10.866Z,98315.27
2019-03-15T09:16:37.871Z,98305.44
2019-03-15T09:19:04.557Z,98314.66
2019-03-15T09:21:31.266Z,98314.13
2019-03-15T09:23:57.960Z,98318.81
2019-03-15T09:26:24.553Z,98319.00
2019-03-15T09:28:51.210Z,98310.33
2019-03-15T09:31:17.913Z,98329.36
2019-03-15T09:33:44.488Z,98314.00
2019-03-15T09:36:11.235Z,98298.58
2019-03-15T09:38:38.003Z,98299.98
2019-03-15T09:41:04.813Z,98302.67
2019-03-15T09:43:31.483Z,98314.05
2019-03-15T09:45:58.276Z,98304.53
2019-03-15T09:48:25.014Z,98273.28
2019-03-15T09:50:52.033Z,98274.32
2019-03-15T09:53:18.791Z,98258.56
2019-03-15T09:55:45.946Z,98264.10
2019-03-15T09:58:12.661Z,98252.50
2019-03-15T10:00:39.446Z,98247.57
2019-03-15T10:03:06.216Z,98242.67
2019-03-15T10:05:33.007Z,98259.28
2019-03-15T10:07:59.705Z,98244.23
2019-03-15T10:10:26.402Z,98248.63
2019-03-15T10:13:05.337Z,98252.91
2019-03-15T10:15:21.668Z,98239.34
2019-03-15T10:17:48.480Z,98230.00
2019-03-15T10:20:17.259Z,98234.25
2019-03-15T10:22:44.062Z,98214.09
2019-03-15T10:25:10.841Z,98236.00
2019-03-15T10:27:37.636Z,98238.50
2019-03-15T10:30:05.378Z,98229.94
2019-03-15T10:32:32.181Z,98217.97
2019-03-15T10:34:58.758Z,98214.39
2019-03-15T10:37:25.569Z,98213.02
2019-03-15T10:39:52.342Z,98199.75
2019-03-15T10:42:19.159Z,98193.16
2019-03-15T10:44:47.032Z,98196.14
2019-03-15T10:47:13.814Z,98196.27
2019-03-15T10:49:40.476Z,98198.39
2019-03-15T10:52:07.286Z,98196.34
2019-03-15T10:54:34.011Z,98194.12
2019-03-15T10:57:00.788Z,98173.57
2019-03-15T10:59:28.222Z,98179.75
2019-03-15T11:01:55.034Z,98184.70
2019-03-15T11:04:21.705Z,98182.17
2019-03-15T11:06:48.521Z,98178.87
2019-03-15T11:09:15.323Z,98165.00
2019-03-15T11:11:42.115Z,98160.92
2019-03-15T11:14:08.709Z,98146.08
2019-03-15T11:16:35.409Z,98155.84
2019-03-15T11:19:02.079Z,98159.34
2019-03-15T11:21:28.767Z,98152.43
2019-03-15T11:23:55.448Z,98153.94
2019-03-15T11:26:22.215Z,98151.67
2019-03-15T11:28:48.901Z,98151.83
2019-03-15T11:31:15.633Z,98145.17
2019-03-15T11:33:42.311Z,98138.15
2019-03-15T11:36:09.023Z,98136.86
2019-03-15T11:38:35.603Z,98122.84
2019-03-15T11:41:02.278Z,98134.80
2019-03-15T11:43:28.974Z,98129.50
2019-03-15T11:45:55.652Z,98142.95
2019-03-15T11:48:22.332Z,98115.39
2019-03-15T11:50:49.030Z,98126.94
2019-03-15T11:53:18.790Z,98125.92
2019-03-15T11:55:44.371Z,98120.95
2019-03-15T11:58:11.124Z,98106.65
2019-03-15T12:00:37.901Z,98114.11
2019-03-15T12:03:05.455Z,98102.70
2019-03-15T12:05:32.216Z,98090.33
2019-03-15T12:07:58.904Z,98093.33
2019-03-15T12:10:25.567Z,98090.49
2019-03-15T12:12:52.273Z,98059.55
2019-03-15T12:15:18.987Z,98076.87
2019-03-15T12:17:45.770Z,98067.87
2019-03-15T12:20:12.656Z,98081.97
2019-03-15T12:22:39.467Z,98082.64
2019-03-15T12:25:06.320Z,98050.86
2019-03-15T12:27:33.106Z,98081.61
2019-03-15T12:29:59.772Z,98077.61
2019-03-15T12:32:26.558Z,98085.06
2019-03-15T12:34:53.129Z,98084.56
2019-03-15T12:37:19.791Z,98054.31
2019-03-15T12:39:46.486Z,98073.86
2019-03-15T12:42:13.168Z,98050.02
2019-03-15T12:44:39.774Z,98064.78
2019-03-15T12:47:06.517Z,98056.50
2019-03-15T12:49:33.323Z,98010.45
2019-03-15T12:51:59.907Z,98047.01
2019-03-15T12:54:26.595Z,98020.57
2019-03-15T12:56:54.237Z,98023.11
2019-03-15T12:59:21.081Z,98008.41
2019-03-15T13:01:47.744Z,98028.84
2019-03-15T13:04:14.336Z,98031.13
2019-03-15T13:06:41.010Z,98022.52
2019-03-15T13:09:07.639Z,98025.27
2019-03-15T13:11:34.312Z,98014.26
2019-03-15T13:14:01.102Z,98018.07
2019-03-15T13:16:27.774Z,98028.66
2019-03-15T13:18:54.591Z,98024.05
2019-03-15T13:21:21.267Z,98019.94
2019-03-15T13:23:47.981Z,98006.35
2019-03-15T13:26:14.764Z,98006.06
2019-03-15T13:28:41.553Z,98007.86
2019-03-15T13:31:08.230Z,98002.56
2019-03-15T13:33:34.819Z,97988.31
2019-03-15T13:36:01.598Z,97983.20
2019-03-15T13:38:28.302Z,97978.45
2019-03-15T13:40:54.869Z,97991.13
2019-03-15T13:43:21.547Z,97986.65
2019-03-15T13:45:48.353Z,97989.60
2019-03-15T13:48:15.092Z,97996.05
2019-03-15T13:50:41.764Z,97992.06
2019-03-15T13:53:08.451Z,98001.78
2019-03-15T13:55:35.154Z,98006.86
2019-03-15T13:58:01.719Z,98009.27
2019-03-15T14:00:28.300Z,97995.02
2019-03-15T14:02:55.002Z,98010.57
2019-03-15T14:05:21.806Z,97984.62
2019-03-15T14:07:48.580Z,98027.73
2019-03-15T14:10:15.406Z,97992.22
2019-03-15T14:12:42.065Z,97992.48
2019-03-15T14:15:09.622Z,97978.23
2019-03-15T14:17:36.303Z,98009.06
2019-03-15T14:20:04.048Z,98031.98
2019-03-15T14:22:30.719Z,97987.02
2019-03-15T14:24:57.408Z,97977.02
2019-03-15T14:27:36.606Z,97990.92
2019-03-15T14:29:52.594Z,97992.56
2019-03-15T14:32:19.184Z,97979.98
2019-03-15T14:34:45.889Z,97993.00
2019-03-15T14:37:12.698Z,97988.17
2019-03-15T14:39:40.398Z,98009.09
2019-03-15T14:42:07.408Z,98022.87
2019-03-15T14:44:34.165Z,98024.64
2019-03-15T14:47:00.831Z,97997.77
2019-03-15T14:49:27.581Z,98021.91
2019-03-15T14:51:54.268Z,98032.58
2019-03-15T14:54:20.985Z,98005.39
2019-03-15T14:56:47.558Z,97993.30
2019-03-15T14:59:14.361Z,98015.48
2019-03-15T15:01:41.059Z,98026.17
2019-03-15T15:04:07.905Z,98037.16
2019-03-15T15:06:34.477Z,98011.13
2019-03-15T15:09:01.249Z,98012.92
2019-03-15T15:11:27.960Z,98007.09
2019-03-15T15:13:54.751Z,98026.01
2019-03-15T15:16:21.445Z,98058.86
2019-03-15T15:18:48.204Z,98060.64
2019-03-15T15:21:14.905Z,98043.00
2019-03-15T15:23:41.701Z,98073.89
2019-03-15T15:26:08.493Z,98094.74
2019-03-15T15:28:35.172Z,98058.36
2019-03-15T15:31:01.916Z,98079.56
2019-03-15T15:33:28.489Z,98089.59
2019-03-15T15:35:55.090Z,98088.59
2019-03-15T15:38:21.754Z,98104.62
2019-03-15T15:40:48.548Z,98093.47
2019-03-15T15:43:15.325Z,98097.99
2019-03-15T15:45:42.219Z,98109.12
2019-03-15T15:48:08.898Z,98089.06
2019-03-15T15:50:35.582Z,98117.84
2019-03-15T15:53:02.287Z,98121.83
2019-03-15T15:55:29.117Z,98110.37
2019-03-15T15:57:55.760Z,98105.49
2019-03-15T16:00:22.553Z,98089.48
2019-03-15T16:02:49.230Z,98114.34
2019-03-15T16:05:15.936Z,98139.50
2019-03-15T16:07:42.725Z,98086.84
2019-03-15T16:10:10.065Z,98123.19
2019-03-15T16:12:36.745Z,98118.65
2019-03-15T16:15:04.500Z,98104.91
2019-03-15T16:17:31.162Z,98093.30
2019-03-15T16:19:57.949Z,98101.23
2019-03-15T16:22:24.650Z,98093.13
2019-03-15T16:24:51.324Z,98081.53
2019-03-15T16:27:18.213Z,98080.22
2019-03-15T16:29:44.927Z,98078.70
2019-03-15T16:32:11.709Z,98086.17
2019-03-15T16:34:38.510Z,98091.00
2019-03-15T16:37:05.170Z,98067.91
2019-03-15T16:39:31.856Z,98094.84
2019-03-15T16:41:58.461Z,98067.55
2019-03-15T16:44:25.172Z,98073.41
2019-03-15T16:46:51.961Z,98088.41
2019-03-15T16:49:18.682Z,98092.80
2019-03-15T16:51:45.368Z,98115.75
2019-03-15T16:54:12.086Z,98127.96
2019-03-15T16:56:38.680Z,98118.13
2019-03-15T16:59:05.353Z,98115.88
2019-03-15T17:01:32.036Z,98121.70
2019-03-15T17:03:58.754Z,98118.13
2019-03-15T17:06:25.436Z,98123.63
2019-03-15T17:08:52.283Z,98131.73
2019-03-15T17:11:19.092Z,98126.22
2019-03-15T17:13:45.943Z,98129.59
2019-03-15T17:16:12.886Z,98138.48
2019-03-15T17:18:39.799Z,98146.55
2019-03-15T17:21:06.503Z,98170.28
2019-03-15T17:23:33.179Z,98180.78
2019-03-15T17:25:59.795Z,98180.78
2019-03-15T17:28:26.364Z,98169.44
2019-03-15T17:30:53.135Z,98191.62
2019-03-15T17:33:19.720Z,98202.43
2019-03-15T17:35:46.411Z,98196.28
2019-03-15T17:38:13.099Z,98209.59
2019-03-15T17:40:39.788Z,98220.88
2019-03-15T17:43:07.604Z,98230.77
2019-03-15T17:45:34.195Z,98224.43
2019-03-15T17:48:00.861Z,98206.66
2019-03-15T17:50:27.658Z,98238.30
2019-03-15T17:52:54.354Z,98204.32
2019-03-15T17:55:21.331Z,98243.74
2019-03-15T17:57:48.034Z,98247.62
2019-03-15T18:00:22.479Z,98262.92
2019-03-15T18:02:49.284Z,98276.94
2019-03-15T18:05:16.050Z,98271.77
2019-03-15T18:07:42.979Z,98247.30
2019-03-15T18:10:09.764Z,98282.42
2019-03-15T18:12:36.576Z,98286.81
2019-03-15T18:15:03.497Z,98298.34
2019-03-15T18:17:30.369Z,98313.80
2019-03-15T18:19:57.171Z,98303.03
2019-03-15T18:22:23.861Z,98305.62
2019-03-15T18:24:50.631Z,98307.48
2019-03-15T18:27:17.358Z,98289.20
2019-03-15T18:29:44.115Z,98318.39
2019-03-15T18:32:10.936Z,98316.23
2019-03-15T18:34:37.704Z,98317.44
2019-03-15T18:37:04.513Z,98317.84
2019-03-15T18:39:31.088Z,98339.69
2019-03-15T18:41:57.899Z,98356.63
2019-03-15T18:44:24.669Z,98359.51
2019-03-15T18:46:51.449Z,98355.14
2019-03-15T18:49:18.822Z,98352.95
2019-03-15T18:51:45.758Z,98339.98
2019-03-15T18:54:17.430Z,98383.06
2019-03-15T18:56:41.263Z,98375.92
2019-03-15T18:59:08.100Z,98371.52
2019-03-15T19:01:35.038Z,98383.85
2019-03-15T19:04:01.832Z,98389.25
2019-03-15T19:06:28.626Z,98398.38
2019-03-15T19:08:55.238Z,98400.25
2019-03-15T19:11:21.922Z,98411.30
2019-03-15T19:13:48.724Z,98397.84
2019-03-15T19:16:19.879Z,98400.02
2019-03-15T19:18:44.058Z,98346.66
2019-03-15T19:21:10.848Z,98405.97
2019-03-15T19:23:37.457Z,98404.68
2019-03-15T19:26:04.268Z,98414.79
2019-03-15T19:28:30.995Z,98418.89
2019-03-15T19:30:57.543Z,98429.58
2019-03-15T19:33:24.244Z,98441.86
2019-03-15T19:35:50.911Z,98438.75
2019-03-15T19:38:17.592Z,98432.22
2019-03-15T19:40:44.366Z,98450.89
2019-03-15T19:43:10.964Z,98446.81
2019-03-15T19:45:37.695Z,98478.16
2019-03-15T19:48:04.524Z,98467.54
2019-03-15T19:50:31.097Z,98479.84
2019-03-15T19:52:57.828Z,98429.31
2019-03-15T19:55:24.421Z,98461.44
2019-03-15T19:57:51.207Z,98467.67
2019-03-15T20:00:17.932Z,98462.51
2019-03-15T20:02:44.611Z,98469.27
2019-03-15T20:05:11.604Z,98487.48
2019-03-15T20:07:38.484Z,98494.89
2019-03-15T20:10:05.787Z,98497.87
2019-03-15T20:12:52.205Z,98508.19
2019-03-15T20:15:19.193Z,98524.70
2019-03-15T20:17:46.043Z,98527.80
2019-03-15T20:20:12.855Z,98503.19
2019-03-15T20:22:39.629Z,98530.52
2019-03-15T20:25:08.385Z,98530.11
2019-03-15T20:27:35.084Z,98523.07
2019-03-15T20:30:01.970Z,98542.26
2019-03-15T20:32:28.653Z,98544.38
2019-03-15T20:34:55.411Z,98551.36
2019-03-15T20:37:21.983Z,98560.56
2019-03-15T20:39:49.026Z,98551.77
2019-03-15T20:42:15.599Z,98570.98
2019-03-15T20:44:42.294Z,98575.53
2019-03-15T20:47:08.890Z,98567.30
2019-03-15T20:49:36.599Z,98583.84
2019-03-15T20:52:03.461Z,98580.04
2019-03-15T20:54:31.158Z,98583.08
2019-03-15T20:57:17.468Z,98560.22
2019-03-15T20:59:44.173Z,98584.31
2019-03-15T21:02:10.753Z,98587.66
2019-03-15T21:04:37.542Z,98575.13
2019-03-15T21:07:04.208Z,98585.08
2019-03-15T21:09:30.898Z,98598.78
2019-03-15T21:11:57.476Z,98603.95
2019-03-15T21:14:24.177Z,98600.71
2019-03-15T21:16:50.868Z,98606.05
2019-03-15T21:19:17.550Z,98598.05
2019-03-15T21:21:44.326Z,98605.41
2019-03-15T21:24:10.914Z,98616.64
2019-03-15T21:26:37.495Z,98621.02
2019-03-15T21:29:04.277Z,98623.95
2019-03-15T21:31:30.981Z,98624.62
2019-03-15T21:33:57.776Z,98628.09
2019-03-15T21:36:24.573Z,98628.51
2019-03-15T21:38:51.394Z,98632.45
2019-03-15T21:41:18.097Z,98635.27
2019-03-15T21:43:44.875Z,98642.98
2019-03-15T21:46:11.576Z,98637.41
2019-03-15T21:48:38.155Z,98637.32
2019-03-15T21:51:04.965Z,98641.14
2019-03-15T21:53:31.605Z,98636.37
2019-03-15T21:55:58.314Z,98637.89
2019-03-15T21:58:25.096Z,98623.63
2019-03-15T22:01:01.546Z,98627.80
2019-03-15T22:03:20.627Z,98636.50
2019-03-15T22:05:47.756Z,98647.76
2019-03-15T22:08:14.500Z,98653.94
2019-03-15T22:10:41.610Z,98649.91
2019-03-15T22:13:08.284Z,98659.98
2019-03-15T22:15:34.991Z,98661.09
2019-03-15T22:18:01.663Z,98674.34
2019-03-15T22:20:28.376Z,98673.13
2019-03-15T22:22:54.954Z,98672.09
2019-03-15T22:25:21.953Z,98678.30
2019-03-15T22:27:50.333Z,98676.98
2019-03-15T22:30:17.244Z,98668.53
2019-03-15T22:32:43.947Z,98673.45
2019-03-15T22:35:11.266Z,98690.91
2019-03-15T22:37:38.049Z,98683.72
2019-03-15T22:40:05.177Z,98691.20
2019-03-15T22:42:31.854Z,98699.36
2019-03-15T22:44:58.546Z,98686.56
2019-03-15T22:47:25.242Z,98696.92
2019-03-15T22:49:52.146Z,98696.72
2019-03-15T22:52:19.324Z,98695.14
2019-03-15T22:54:46.055Z,98690.94
2019-03-15T22:57:12.732Z,98697.16
2019-03-15T22:59:39.425Z,98680.45
2019-03-15T23:02:06.318Z,98695.20
2019-03-15T23:04:32.892Z,98685.09
2019-03-15T23:06:59.591Z,98703.38
2019-03-15T23:09:26.267Z,98708.50
2019-03-15T23:11:52.942Z,98705.66
2019-03-15T23:14:19.520Z,98716.82
2019-03-15T23:16:46.213Z,98732.63
2019-03-15T23:19:12.900Z,98733.66
2019-03-15T23:21:39.703Z,98738.71
2019-03-15T23:24:06.479Z,98716.23
2019-03-15T23:26:33.275Z,98751.92
2019-03-15T23:28:59.852Z,98733.66
2019-03-15T23:31:26.540Z,98737.52
2019-03-15T23:33:53.123Z,98727.92
2019-03-15T23:36:19.818Z,98736.77
2019-03-15T23:38:46.934Z,98756.25
2019-03-15T23:41:13.703Z,98753.82
2019-03-15T23:43:40.405Z,98746.76
2019-03-15T23:46:07.181Z,98758.58
2019-03-15T23:48:33.985Z,98754.22
2019-03-15T23:51:00.587Z,98752.23
2019-03-15T23:53:27.178Z,98762.48
2019-03-15T23:55:55.014Z,98768.55
2019-03-15T23:58:21.849Z,98773.47
